sensor_id;sensor_type;location;lat;lon;timestamp;temperature;humidity
9668;DHT22;4872;48.316;10.650;2023-06-14T04:07:37;11.70;59.50
9668;DHT22;4872;48.316;10.650;2023-06-14T04:10:06;11.70;59.90
9668;DHT22;4872;48.316;10.650;2023-06-14T04:12:34;11.70;60.20
9668;DHT22;4872;48.316;10.650;2023-06-14T04:15:00;11.70;60.10
9668;DHT22;4872;48.316;10.650;2023-06-14T04:17:28;11.60;59.90
9668;DHT22;4872;48.316;10.650;2023-06-14T04:19:55;11.60;60.00
9668;DHT22;4872;48.316;10.650;2023-06-14T04:22:24;11.50;59.80
9668;DHT22;4872;48.316;10.650;2023-06-14T04:24:55;11.60;60.20
9668;DHT22;4872;48.316;10.650;2023-06-14T04:27:22;11.70;60.30
9668;DHT22;4872;48.316;10.650;2023-06-14T04:29:50;11.90;60.40
9668;DHT22;4872;48.316;10.650;2023-06-14T04:32:23;12.00;60.40
9668;DHT22;4872;48.316;10.650;2023-06-14T04:34:51;11.90;60.20
9668;DHT22;4872;48.316;10.650;2023-06-14T04:37:19;12.00;60.00
9668;DHT22;4872;48.316;10.650;2023-06-14T04:39:47;12.10;59.90
9668;DHT22;4872;48.316;10.650;2023-06-14T04:42:15;12.00;59.50
9668;DHT22;4872;48.316;10.650;2023-06-14T04:44:42;12.20;59.60
9668;DHT22;4872;48.316;10.650;2023-06-14T04:47:10;12.30;59.40
9668;DHT22;4872;48.316;10.650;2023-06-14T04:49:38;12.30;59.40
9668;DHT22;4872;48.316;10.650;2023-06-14T04:52:06;12.40;59.40
9668;DHT22;4872;48.316;10.650;2023-06-14T04:54:35;12.40;59.80
9668;DHT22;4872;48.316;10.650;2023-06-14T04:57:04;12.50;59.70
9668;DHT22;4872;48.316;10.650;2023-06-14T04:59:32;12.60;59.40
9668;DHT22;4872;48.316;10.650;2023-06-14T05:02:01;12.70;59.90
9668;DHT22;4872;48.316;10.650;2023-06-14T05:04:28;13.10;59.70
9668;DHT22;4872;48.316;10.650;2023-06-14T05:06:54;12.90;59.30
9668;DHT22;4872;48.316;10.650;2023-06-14T05:09:22;13.00;59.40
9668;DHT22;4872;48.316;10.650;2023-06-14T05:11:48;13.30;59.40
9668;DHT22;4872;48.316;10.650;2023-06-14T05:14:16;13.10;59.40
9668;DHT22;4872;48.316;10.650;2023-06-14T05:16:44;13.20;59.20
9668;DHT22;4872;48.316;10.650;2023-06-14T05:19:11;13.30;59.20
9668;DHT22;4872;48.316;10.650;2023-06-14T05:21:38;13.40;59.50
9668;DHT22;4872;48.316;10.650;2023-06-14T05:24:05;13.30;59.70
9668;DHT22;4872;48.316;10.650;2023-06-14T05:26:32;13.20;59.40
9668;DHT22;4872;48.316;10.650;2023-06-14T05:28:59;13.20;59.50
9668;DHT22;4872;48.316;10.650;2023-06-14T05:31:27;13.40;58.90
9668;DHT22;4872;48.316;10.650;2023-06-14T05:33:55;13.50;59.10
9668;DHT22;4872;48.316;10.650;2023-06-14T05:36:21;13.70;59.80
9668;DHT22;4872;48.316;10.650;2023-06-14T05:38:48;13.80;59.40
9668;DHT22;4872;48.316;10.650;2023-06-14T05:41:16;14.00;59.00
9668;DHT22;4872;48.316;10.650;2023-06-14T05:43:42;14.10;59.10
9668;DHT22;4872;48.316;10.650;2023-06-14T05:46:09;14.20;58.20
9668;DHT22;4872;48.316;10.650;2023-06-14T05:48:36;14.30;58.20
9668;DHT22;4872;48.316;10.650;2023-06-14T05:51:04;14.30;57.40
9668;DHT22;4872;48.316;10.650;2023-06-14T05:53:34;14.40;58.00
9668;DHT22;4872;48.316;10.650;2023-06-14T05:56:01;14.50;58.20
9668;DHT22;4872;48.316;10.650;2023-06-14T05:58:28;14.60;58.20
9668;DHT22;4872;48.316;10.650;2023-06-14T06:00:54;14.70;57.20
9668;DHT22;4872;48.316;10.650;2023-06-14T06:03:21;14.90;57.40
9668;DHT22;4872;48.316;10.650;2023-06-14T06:05:48;15.10;58.80
9668;DHT22;4872;48.316;10.650;2023-06-14T06:08:16;15.30;59.10
9668;DHT22;4872;48.316;10.650;2023-06-14T06:10:43;15.60;58.90
9668;DHT22;4872;48.316;10.650;2023-06-14T06:13:10;15.60;57.90
9668;DHT22;4872;48.316;10.650;2023-06-14T06:15:36;15.60;57.90
9668;DHT22;4872;48.316;10.650;2023-06-14T06:18:03;15.80;58.00
9668;DHT22;4872;48.316;10.650;2023-06-14T06:20:30;15.90;58.30
9668;DHT22;4872;48.316;10.650;2023-06-14T06:22:57;16.00;57.80
9668;DHT22;4872;48.316;10.650;2023-06-14T06:25:26;16.20;57.70
9668;DHT22;4872;48.316;10.650;2023-06-14T06:27:53;16.30;57.20
9668;DHT22;4872;48.316;10.650;2023-06-14T06:30:21;16.40;55.80
9668;DHT22;4872;48.316;10.650;2023-06-14T06:32:48;16.60;56.40
9668;DHT22;4872;48.316;10.650;2023-06-14T06:35:16;16.70;56.80
9668;DHT22;4872;48.316;10.650;2023-06-14T06:37:43;16.80;56.90
9668;DHT22;4872;48.316;10.650;2023-06-14T06:40:10;16.90;56.80
9668;DHT22;4872;48.316;10.650;2023-06-14T06:42:39;17.00;56.60
9668;DHT22;4872;48.316;10.650;2023-06-14T06:45:06;17.20;55.90
9668;DHT22;4872;48.316;10.650;2023-06-14T06:47:33;17.20;55.40
9668;DHT22;4872;48.316;10.650;2023-06-14T06:49:59;17.30;55.70
9668;DHT22;4872;48.316;10.650;2023-06-14T06:52:26;17.40;55.60
9668;DHT22;4872;48.316;10.650;2023-06-14T06:54:53;17.50;55.40
9668;DHT22;4872;48.316;10.650;2023-06-14T06:57:21;17.60;55.50
9668;DHT22;4872;48.316;10.650;2023-06-14T06:59:50;17.70;55.60
9668;DHT22;4872;48.316;10.650;2023-06-14T07:02:16;17.80;55.40
9668;DHT22;4872;48.316;10.650;2023-06-14T07:04:43;17.80;55.10
9668;DHT22;4872;48.316;10.650;2023-06-14T07:07:10;17.80;55.10
9668;DHT22;4872;48.316;10.650;2023-06-14T07:09:37;17.90;55.50
9668;DHT22;4872;48.316;10.650;2023-06-14T07:12:04;18.00;54.60
9668;DHT22;4872;48.316;10.650;2023-06-14T07:14:31;18.10;54.70
9668;DHT22;4872;48.316;10.650;2023-06-14T07:16:59;18.20;54.90
9668;DHT22;4872;48.316;10.650;2023-06-14T07:19:26;18.30;54.90
9668;DHT22;4872;48.316;10.650;2023-06-14T07:21:53;18.40;54.50
9668;DHT22;4872;48.316;10.650;2023-06-14T07:24:19;18.50;54.80
9668;DHT22;4872;48.316;10.650;2023-06-14T07:26:48;18.60;53.80
9668;DHT22;4872;48.316;10.650;2023-06-14T07:29:15;18.70;53.50
9668;DHT22;4872;48.316;10.650;2023-06-14T07:31:42;18.80;53.60
9668;DHT22;4872;48.316;10.650;2023-06-14T07:34:10;18.90;53.30
9668;DHT22;4872;48.316;10.650;2023-06-14T07:36:37;19.00;52.90
9668;DHT22;4872;48.316;10.650;2023-06-14T07:39:04;19.00;52.60
9668;DHT22;4872;48.316;10.650;2023-06-14T07:41:31;19.10;53.00
9668;DHT22;4872;48.316;10.650;2023-06-14T07:43:58;19.20;52.60
9668;DHT22;4872;48.316;10.650;2023-06-14T07:46:25;19.30;52.30
9668;DHT22;4872;48.316;10.650;2023-06-14T07:48:52;19.30;52.00
9668;DHT22;4872;48.316;10.650;2023-06-14T07:51:20;19.40;51.60
9668;DHT22;4872;48.316;10.650;2023-06-14T07:53:48;19.50;52.00
9668;DHT22;4872;48.316;10.650;2023-06-14T07:56:14;19.50;52.30
9668;DHT22;4872;48.316;10.650;2023-06-14T07:58:41;19.60;51.50
9668;DHT22;4872;48.316;10.650;2023-06-14T08:01:08;19.60;51.60
9668;DHT22;4872;48.316;10.650;2023-06-14T08:03:36;19.70;51.60
9668;DHT22;4872;48.316;10.650;2023-06-14T08:06:03;19.80;51.90
9668;DHT22;4872;48.316;10.650;2023-06-14T08:08:31;19.90;51.40
9668;DHT22;4872;48.316;10.650;2023-06-14T08:10:58;19.90;50.80
9668;DHT22;4872;48.316;10.650;2023-06-14T08:13:25;19.90;51.20
9668;DHT22;4872;48.316;10.650;2023-06-14T08:15:52;20.00;50.80
9668;DHT22;4872;48.316;10.650;2023-06-14T08:18:18;20.00;51.20
9668;DHT22;4872;48.316;10.650;2023-06-14T08:20:45;20.10;50.30
9668;DHT22;4872;48.316;10.650;2023-06-14T08:23:12;20.20;50.90
9668;DHT22;4872;48.316;10.650;2023-06-14T08:25:40;20.20;50.50
9668;DHT22;4872;48.316;10.650;2023-06-14T08:28:07;20.30;50.90
9668;DHT22;4872;48.316;10.650;2023-06-14T08:30:33;20.60;51.30
9668;DHT22;4872;48.316;10.650;2023-06-14T08:33:00;20.50;50.60
9668;DHT22;4872;48.316;10.650;2023-06-14T08:35:27;20.60;50.10
9668;DHT22;4872;48.316;10.650;2023-06-14T08:37:54;20.70;51.00
9668;DHT22;4872;48.316;10.650;2023-06-14T08:40:23;20.80;51.00
9668;DHT22;4872;48.316;10.650;2023-06-14T08:42:52;20.80;49.30
9668;DHT22;4872;48.316;10.650;2023-06-14T08:45:19;20.90;49.50
9668;DHT22;4872;48.316;10.650;2023-06-14T08:47:47;21.00;49.20
9668;DHT22;4872;48.316;10.650;2023-06-14T08:50:19;21.20;49.00
9668;DHT22;4872;48.316;10.650;2023-06-14T08:52:48;21.10;49.10
9668;DHT22;4872;48.316;10.650;2023-06-14T08:55:18;21.10;48.70
9668;DHT22;4872;48.316;10.650;2023-06-14T08:57:46;21.20;49.70
9668;DHT22;4872;48.316;10.650;2023-06-14T09:00:16;21.30;50.00
9668;DHT22;4872;48.316;10.650;2023-06-14T09:02:43;21.30;48.10
9668;DHT22;4872;48.316;10.650;2023-06-14T09:05:10;21.40;48.30
9668;DHT22;4872;48.316;10.650;2023-06-14T09:07:39;21.40;48.90
9668;DHT22;4872;48.316;10.650;2023-06-14T09:10:08;21.50;48.00
9668;DHT22;4872;48.316;10.650;2023-06-14T09:12:35;21.50;48.30
9668;DHT22;4872;48.316;10.650;2023-06-14T09:15:03;21.50;47.30
9668;DHT22;4872;48.316;10.650;2023-06-14T09:17:34;21.60;47.60
9668;DHT22;4872;48.316;10.650;2023-06-14T09:20:01;21.60;46.50
9668;DHT22;4872;48.316;10.650;2023-06-14T09:22:31;21.60;47.70
9668;DHT22;4872;48.316;10.650;2023-06-14T09:24:58;21.70;46.80
9668;DHT22;4872;48.316;10.650;2023-06-14T09:27:25;21.70;48.20
9668;DHT22;4872;48.316;10.650;2023-06-14T09:29:53;21.80;46.90
9668;DHT22;4872;48.316;10.650;2023-06-14T09:32:20;21.80;47.50
9668;DHT22;4872;48.316;10.650;2023-06-14T09:34:49;22.00;46.90
9668;DHT22;4872;48.316;10.650;2023-06-14T09:37:27;21.90;47.40
9668;DHT22;4872;48.316;10.650;2023-06-14T09:39:54;21.90;46.00
9668;DHT22;4872;48.316;10.650;2023-06-14T09:42:21;22.00;46.90
9668;DHT22;4872;48.316;10.650;2023-06-14T09:44:52;22.10;47.20
9668;DHT22;4872;48.316;10.650;2023-06-14T09:47:19;22.10;46.70
9668;DHT22;4872;48.316;10.650;2023-06-14T09:49:48;22.20;44.70
9668;DHT22;4872;48.316;10.650;2023-06-14T09:52:16;22.20;45.60
9668;DHT22;4872;48.316;10.650;2023-06-14T09:54:44;22.30;45.70
9668;DHT22;4872;48.316;10.650;2023-06-14T09:57:14;22.30;44.60
9668;DHT22;4872;48.316;10.650;2023-06-14T09:59:42;22.30;43.60
9668;DHT22;4872;48.316;10.650;2023-06-14T10:02:13;22.40;45.00
9668;DHT22;4872;48.316;10.650;2023-06-14T10:04:49;22.40;45.10
9668;DHT22;4872;48.316;10.650;2023-06-14T10:07:19;22.40;45.00
9668;DHT22;4872;48.316;10.650;2023-06-14T10:09:47;22.50;45.40
9668;DHT22;4872;48.316;10.650;2023-06-14T10:12:16;22.40;44.80
9668;DHT22;4872;48.316;10.650;2023-06-14T10:14:48;22.50;44.50
9668;DHT22;4872;48.316;10.650;2023-06-14T10:17:22;22.60;43.90
9668;DHT22;4872;48.316;10.650;2023-06-14T10:19:56;22.70;44.10
9668;DHT22;4872;48.316;10.650;2023-06-14T10:22:33;22.70;44.20
9668;DHT22;4872;48.316;10.650;2023-06-14T10:25:02;22.70;44.10
9668;DHT22;4872;48.316;10.650;2023-06-14T10:27:33;22.80;43.50
9668;DHT22;4872;48.316;10.650;2023-06-14T10:30:04;22.80;43.60
9668;DHT22;4872;48.316;10.650;2023-06-14T10:32:32;22.80;44.50
9668;DHT22;4872;48.316;10.650;2023-06-14T10:35:04;22.90;43.80
9668;DHT22;4872;48.316;10.650;2023-06-14T10:37:31;22.90;43.50
9668;DHT22;4872;48.316;10.650;2023-06-14T10:39:58;23.00;43.10
9668;DHT22;4872;48.316;10.650;2023-06-14T10:42:28;23.00;43.10
9668;DHT22;4872;48.316;10.650;2023-06-14T10:44:58;23.00;41.10
9668;DHT22;4872;48.316;10.650;2023-06-14T10:47:29;23.10;42.80
9668;DHT22;4872;48.316;10.650;2023-06-14T10:50:02;23.20;43.40
9668;DHT22;4872;48.316;10.650;2023-06-14T10:52:34;23.00;43.10
9668;DHT22;4872;48.316;10.650;2023-06-14T10:55:05;23.10;42.50
9668;DHT22;4872;48.316;10.650;2023-06-14T10:57:35;23.20;41.20
9668;DHT22;4872;48.316;10.650;2023-06-14T11:00:03;23.10;40.40
9668;DHT22;4872;48.316;10.650;2023-06-14T11:05:48;23.20;40.70
9668;DHT22;4872;48.316;10.650;2023-06-14T11:08:35;23.10;39.50
9668;DHT22;4872;48.316;10.650;2023-06-14T11:11:06;23.10;40.60
9668;DHT22;4872;48.316;10.650;2023-06-14T11:13:34;23.10;39.20
9668;DHT22;4872;48.316;10.650;2023-06-14T11:16:10;23.10;38.90
9668;DHT22;4872;48.316;10.650;2023-06-14T11:18:37;23.10;39.90
9668;DHT22;4872;48.316;10.650;2023-06-14T11:21:04;23.20;42.40
9668;DHT22;4872;48.316;10.650;2023-06-14T11:23:32;23.30;42.40
9668;DHT22;4872;48.316;10.650;2023-06-14T11:25:58;23.40;42.30
9668;DHT22;4872;48.316;10.650;2023-06-14T11:28:38;23.30;42.90
9668;DHT22;4872;48.316;10.650;2023-06-14T11:31:05;23.20;42.10
9668;DHT22;4872;48.316;10.650;2023-06-14T11:33:33;23.20;40.50
9668;DHT22;4872;48.316;10.650;2023-06-14T11:36:02;23.20;41.70
9668;DHT22;4872;48.316;10.650;2023-06-14T11:38:34;23.30;42.60
9668;DHT22;4872;48.316;10.650;2023-06-14T11:41:01;23.50;42.60
9668;DHT22;4872;48.316;10.650;2023-06-14T11:43:28;23.60;42.50
9668;DHT22;4872;48.316;10.650;2023-06-14T11:45:57;23.80;44.60
9668;DHT22;4872;48.316;10.650;2023-06-14T11:48:35;23.80;44.00
9668;DHT22;4872;48.316;10.650;2023-06-14T11:51:02;23.90;43.80
9668;DHT22;4872;48.316;10.650;2023-06-14T11:53:29;24.00;41.00
9668;DHT22;4872;48.316;10.650;2023-06-14T11:55:57;24.10;40.80
9668;DHT22;4872;48.316;10.650;2023-06-14T11:58:25;24.20;42.10
9668;DHT22;4872;48.316;10.650;2023-06-14T12:00:53;24.20;41.90
9668;DHT22;4872;48.316;10.650;2023-06-14T12:03:23;24.40;43.80
9668;DHT22;4872;48.316;10.650;2023-06-14T12:05:50;24.40;42.80
9668;DHT22;4872;48.316;10.650;2023-06-14T12:08:17;24.40;42.50
9668;DHT22;4872;48.316;10.650;2023-06-14T12:10:44;24.30;41.80
9668;DHT22;4872;48.316;10.650;2023-06-14T12:13:17;24.50;38.80
9668;DHT22;4872;48.316;10.650;2023-06-14T12:15:45;24.40;40.70
9668;DHT22;4872;48.316;10.650;2023-06-14T12:18:11;24.40;41.70
9668;DHT22;4872;48.316;10.650;2023-06-14T12:20:39;24.50;41.60
9668;DHT22;4872;48.316;10.650;2023-06-14T12:23:06;24.60;41.80
9668;DHT22;4872;48.316;10.650;2023-06-14T12:25:35;24.70;41.90
9668;DHT22;4872;48.316;10.650;2023-06-14T12:28:05;24.90;42.70
9668;DHT22;4872;48.316;10.650;2023-06-14T12:30:35;25.00;40.60
9668;DHT22;4872;48.316;10.650;2023-06-14T12:33:02;25.10;40.30
9668;DHT22;4872;48.316;10.650;2023-06-14T12:35:29;25.20;41.00
9668;DHT22;4872;48.316;10.650;2023-06-14T12:37:56;25.30;41.60
9668;DHT22;4872;48.316;10.650;2023-06-14T12:40:23;25.20;40.00
9668;DHT22;4872;48.316;10.650;2023-06-14T12:42:49;25.10;40.20
9668;DHT22;4872;48.316;10.650;2023-06-14T12:45:16;25.10;41.10
9668;DHT22;4872;48.316;10.650;2023-06-14T12:47:44;25.00;41.10
9668;DHT22;4872;48.316;10.650;2023-06-14T12:50:11;25.00;41.00
9668;DHT22;4872;48.316;10.650;2023-06-14T12:52:38;25.10;40.50
9668;DHT22;4872;48.316;10.650;2023-06-14T12:55:05;25.30;39.30
9668;DHT22;4872;48.316;10.650;2023-06-14T12:57:32;25.50;38.40
9668;DHT22;4872;48.316;10.650;2023-06-14T13:00:02;25.80;40.90
9668;DHT22;4872;48.316;10.650;2023-06-14T13:02:30;26.10;40.90
9668;DHT22;4872;48.316;10.650;2023-06-14T13:04:58;26.30;41.80
9668;DHT22;4872;48.316;10.650;2023-06-14T13:07:26;26.50;41.90
9668;DHT22;4872;48.316;10.650;2023-06-14T13:09:52;26.60;40.20
9668;DHT22;4872;48.316;10.650;2023-06-14T13:12:19;26.70;40.70
9668;DHT22;4872;48.316;10.650;2023-06-14T13:14:46;26.90;40.50
9668;DHT22;4872;48.316;10.650;2023-06-14T13:17:13;27.10;40.40
9668;DHT22;4872;48.316;10.650;2023-06-14T13:19:39;27.20;39.40
9668;DHT22;4872;48.316;10.650;2023-06-14T13:22:09;27.40;39.10
9668;DHT22;4872;48.316;10.650;2023-06-14T13:24:36;27.70;38.90
9668;DHT22;4872;48.316;10.650;2023-06-14T13:27:03;27.90;39.00
9668;DHT22;4872;48.316;10.650;2023-06-14T13:29:30;27.80;35.60
9668;DHT22;4872;48.316;10.650;2023-06-14T13:31:58;28.10;37.80
9668;DHT22;4872;48.316;10.650;2023-06-14T13:34:26;28.30;38.80
9668;DHT22;4872;48.316;10.650;2023-06-14T13:36:53;28.50;37.20
9668;DHT22;4872;48.316;10.650;2023-06-14T13:39:22;28.80;36.70
9668;DHT22;4872;48.316;10.650;2023-06-14T13:41:50;29.00;37.30
9668;DHT22;4872;48.316;10.650;2023-06-14T13:44:18;29.10;36.00
9668;DHT22;4872;48.316;10.650;2023-06-14T13:46:46;29.20;37.40
9668;DHT22;4872;48.316;10.650;2023-06-14T13:49:13;29.40;37.50
9668;DHT22;4872;48.316;10.650;2023-06-14T13:51:40;29.60;37.70
9668;DHT22;4872;48.316;10.650;2023-06-14T13:54:06;29.80;38.50
9668;DHT22;4872;48.316;10.650;2023-06-14T13:56:35;29.60;36.70
9668;DHT22;4872;48.316;10.650;2023-06-14T13:59:01;29.00;36.30
9668;DHT22;4872;48.316;10.650;2023-06-14T14:01:28;28.70;36.90
9668;DHT22;4872;48.316;10.650;2023-06-14T14:03:55;28.40;37.30
9668;DHT22;4872;48.316;10.650;2023-06-14T14:06:23;28.00;37.40
9668;DHT22;4872;48.316;10.650;2023-06-14T14:08:50;27.60;38.10
9668;DHT22;4872;48.316;10.650;2023-06-14T14:11:18;27.30;38.00
9668;DHT22;4872;48.316;10.650;2023-06-14T14:13:46;27.30;37.90
9668;DHT22;4872;48.316;10.650;2023-06-14T14:16:13;27.50;38.70
9668;DHT22;4872;48.316;10.650;2023-06-14T14:18:40;27.90;38.10
9668;DHT22;4872;48.316;10.650;2023-06-14T14:21:07;28.40;37.90
9668;DHT22;4872;48.316;10.650;2023-06-14T14:23:35;28.80;37.20
9668;DHT22;4872;48.316;10.650;2023-06-14T14:26:01;29.20;36.20
9668;DHT22;4872;48.316;10.650;2023-06-14T14:28:29;29.40;35.70
9668;DHT22;4872;48.316;10.650;2023-06-14T14:30:57;29.30;35.60
9668;DHT22;4872;48.316;10.650;2023-06-14T14:33:24;29.00;35.60
9668;DHT22;4872;48.316;10.650;2023-06-14T14:35:51;28.70;36.70
9668;DHT22;4872;48.316;10.650;2023-06-14T14:38:18;28.20;36.30
9668;DHT22;4872;48.316;10.650;2023-06-14T14:40:45;27.90;37.40
9668;DHT22;4872;48.316;10.650;2023-06-14T14:43:11;27.70;37.10
9668;DHT22;4872;48.316;10.650;2023-06-14T14:45:38;27.40;37.60
9668;DHT22;4872;48.316;10.650;2023-06-14T14:48:06;27.20;38.40
9668;DHT22;4872;48.316;10.650;2023-06-14T14:50:33;27.10;39.00
9668;DHT22;4872;48.316;10.650;2023-06-14T14:53:02;27.00;39.20
9668;DHT22;4872;48.316;10.650;2023-06-14T14:55:29;26.90;39.30
9668;DHT22;4872;48.316;10.650;2023-06-14T14:57:56;26.90;38.60
9668;DHT22;4872;48.316;10.650;2023-06-14T15:00:22;26.90;38.10
9668;DHT22;4872;48.316;10.650;2023-06-14T15:02:49;27.40;39.30
9668;DHT22;4872;48.316;10.650;2023-06-14T15:05:17;27.80;38.00
9668;DHT22;4872;48.316;10.650;2023-06-14T15:07:44;28.60;38.00
9668;DHT22;4872;48.316;10.650;2023-06-14T15:10:11;29.00;36.40
9668;DHT22;4872;48.316;10.650;2023-06-14T15:12:38;29.60;37.10
9668;DHT22;4872;48.316;10.650;2023-06-14T15:15:05;30.10;37.60
9668;DHT22;4872;48.316;10.650;2023-06-14T15:17:32;30.60;36.60
9668;DHT22;4872;48.316;10.650;2023-06-14T15:19:59;31.10;36.20
9668;DHT22;4872;48.316;10.650;2023-06-14T15:22:27;31.50;34.50
9668;DHT22;4872;48.316;10.650;2023-06-14T15:24:54;31.80;34.70
9668;DHT22;4872;48.316;10.650;2023-06-14T15:27:20;32.30;33.90
9668;DHT22;4872;48.316;10.650;2023-06-14T15:29:47;32.40;34.90
9668;DHT22;4872;48.316;10.650;2023-06-14T15:32:14;32.20;34.80
9668;DHT22;4872;48.316;10.650;2023-06-14T15:34:41;31.90;35.10
9668;DHT22;4872;48.316;10.650;2023-06-14T15:37:07;31.70;34.90
9668;DHT22;4872;48.316;10.650;2023-06-14T15:39:36;31.90;35.60
9668;DHT22;4872;48.316;10.650;2023-06-14T15:42:03;32.30;35.00
9668;DHT22;4872;48.316;10.650;2023-06-14T15:44:31;32.80;34.40
9668;DHT22;4872;48.316;10.650;2023-06-14T15:46:58;33.40;34.10
9668;DHT22;4872;48.316;10.650;2023-06-14T15:49:25;33.80;33.50
9668;DHT22;4872;48.316;10.650;2023-06-14T15:51:52;34.30;32.50
9668;DHT22;4872;48.316;10.650;2023-06-14T15:54:19;34.70;32.20
9668;DHT22;4872;48.316;10.650;2023-06-14T15:56:47;35.20;32.90
9668;DHT22;4872;48.316;10.650;2023-06-14T15:59:13;35.60;32.20
9668;DHT22;4872;48.316;10.650;2023-06-14T16:01:40;35.90;32.50
9668;DHT22;4872;48.316;10.650;2023-06-14T16:04:07;36.30;31.20
9668;DHT22;4872;48.316;10.650;2023-06-14T16:06:33;36.50;32.00
9668;DHT22;4872;48.316;10.650;2023-06-14T16:09:01;36.60;32.30
9668;DHT22;4872;48.316;10.650;2023-06-14T16:11:28;36.50;32.10
9668;DHT22;4872;48.316;10.650;2023-06-14T16:13:56;35.80;31.50
9668;DHT22;4872;48.316;10.650;2023-06-14T16:16:23;35.50;31.20
9668;DHT22;4872;48.316;10.650;2023-06-14T16:18:49;35.10;32.40
9668;DHT22;4872;48.316;10.650;2023-06-14T16:21:16;34.40;32.30
9668;DHT22;4872;48.316;10.650;2023-06-14T16:23:43;33.70;33.50
9668;DHT22;4872;48.316;10.650;2023-06-14T16:26:11;34.00;32.70
9668;DHT22;4872;48.316;10.650;2023-06-14T16:28:38;34.10;32.70
9668;DHT22;4872;48.316;10.650;2023-06-14T16:31:08;34.30;32.50
9668;DHT22;4872;48.316;10.650;2023-06-14T16:33:35;35.00;32.20
9668;DHT22;4872;48.316;10.650;2023-06-14T16:36:02;35.70;31.70
9668;DHT22;4872;48.316;10.650;2023-06-14T16:38:29;36.50;31.70
9668;DHT22;4872;48.316;10.650;2023-06-14T16:40:56;37.00;31.40
9668;DHT22;4872;48.316;10.650;2023-06-14T16:43:22;37.30;31.40
9668;DHT22;4872;48.316;10.650;2023-06-14T16:45:49;36.80;31.50
9668;DHT22;4872;48.316;10.650;2023-06-14T16:48:17;36.70;31.10
9668;DHT22;4872;48.316;10.650;2023-06-14T16:50:44;37.10;31.10
9668;DHT22;4872;48.316;10.650;2023-06-14T16:53:11;37.50;30.70
9668;DHT22;4872;48.316;10.650;2023-06-14T16:55:37;37.90;30.40
9668;DHT22;4872;48.316;10.650;2023-06-14T16:58:04;38.30;31.00
9668;DHT22;4872;48.316;10.650;2023-06-14T17:00:31;38.90;30.80
9668;DHT22;4872;48.316;10.650;2023-06-14T17:02:58;38.50;30.70
9668;DHT22;4872;48.316;10.650;2023-06-14T17:05:27;37.40;30.60
9668;DHT22;4872;48.316;10.650;2023-06-14T17:07:53;36.70;30.90
9668;DHT22;4872;48.316;10.650;2023-06-14T17:10:20;36.20;31.20
9668;DHT22;4872;48.316;10.650;2023-06-14T17:12:47;35.60;31.30
9668;DHT22;4872;48.316;10.650;2023-06-14T17:15:14;35.00;31.60
9668;DHT22;4872;48.316;10.650;2023-06-14T17:17:41;34.80;31.60
9668;DHT22;4872;48.316;10.650;2023-06-14T17:20:09;35.30;31.70
9668;DHT22;4872;48.316;10.650;2023-06-14T17:22:37;36.00;31.30
9668;DHT22;4872;48.316;10.650;2023-06-14T17:25:06;36.80;31.50
9668;DHT22;4872;48.316;10.650;2023-06-14T17:27:33;37.50;30.70
9668;DHT22;4872;48.316;10.650;2023-06-14T17:30:00;38.20;30.40
9668;DHT22;4872;48.316;10.650;2023-06-14T17:32:27;38.60;30.50
9668;DHT22;4872;48.316;10.650;2023-06-14T17:34:53;38.40;30.30
9668;DHT22;4872;48.316;10.650;2023-06-14T17:37:20;37.80;30.30
9668;DHT22;4872;48.316;10.650;2023-06-14T17:39:48;36.90;30.80
9668;DHT22;4872;48.316;10.650;2023-06-14T17:42:15;35.70;31.30
9668;DHT22;4872;48.316;10.650;2023-06-14T17:44:42;34.30;32.20
9668;DHT22;4872;48.316;10.650;2023-06-14T17:47:09;33.40;33.10
9668;DHT22;4872;48.316;10.650;2023-06-14T17:49:36;33.20;33.20
9668;DHT22;4872;48.316;10.650;2023-06-14T17:52:03;33.30;33.50
9668;DHT22;4872;48.316;10.650;2023-06-14T17:54:30;33.80;33.30
9668;DHT22;4872;48.316;10.650;2023-06-14T17:56:58;34.10;32.90
9668;DHT22;4872;48.316;10.650;2023-06-14T17:59:25;34.60;32.60
9668;DHT22;4872;48.316;10.650;2023-06-14T18:01:52;35.00;32.60
9668;DHT22;4872;48.316;10.650;2023-06-14T18:04:18;35.20;32.30
9668;DHT22;4872;48.316;10.650;2023-06-14T18:06:45;35.50;32.00
9668;DHT22;4872;48.316;10.650;2023-06-14T18:09:12;35.70;31.90
9668;DHT22;4872;48.316;10.650;2023-06-14T18:11:40;35.70;32.30
9668;DHT22;4872;48.316;10.650;2023-06-14T18:14:09;35.80;32.00
9668;DHT22;4872;48.316;10.650;2023-06-14T18:16:35;35.50;31.90
9668;DHT22;4872;48.316;10.650;2023-06-14T18:19:04;34.60;32.00
9668;DHT22;4872;48.316;10.650;2023-06-14T18:21:31;33.20;32.90
9668;DHT22;4872;48.316;10.650;2023-06-14T18:23:57;31.90;33.50
9668;DHT22;4872;48.316;10.650;2023-06-14T18:26:25;30.60;34.60
9668;DHT22;4872;48.316;10.650;2023-06-14T18:28:53;29.50;35.60
9668;DHT22;4872;48.316;10.650;2023-06-14T18:31:22;28.50;36.40
9668;DHT22;4872;48.316;10.650;2023-06-14T18:33:49;27.90;37.50
9668;DHT22;4872;48.316;10.650;2023-06-14T18:36:16;27.30;37.80
9668;DHT22;4872;48.316;10.650;2023-06-14T18:38:44;26.80;38.40
9668;DHT22;4872;48.316;10.650;2023-06-14T18:41:11;26.20;38.30
9668;DHT22;4872;48.316;10.650;2023-06-14T18:43:38;25.80;39.00
9668;DHT22;4872;48.316;10.650;2023-06-14T18:46:05;25.50;39.00
9668;DHT22;4872;48.316;10.650;2023-06-14T18:48:33;25.10;39.50
9668;DHT22;4872;48.316;10.650;2023-06-14T18:51:00;24.70;40.00
9668;DHT22;4872;48.316;10.650;2023-06-14T18:53:27;24.40;40.20
9668;DHT22;4872;48.316;10.650;2023-06-14T18:55:54;24.10;40.60
9668;DHT22;4872;48.316;10.650;2023-06-14T18:58:21;23.90;41.00
9668;DHT22;4872;48.316;10.650;2023-06-14T19:00:48;23.90;41.30
9668;DHT22;4872;48.316;10.650;2023-06-14T19:03:15;23.70;41.40
9668;DHT22;4872;48.316;10.650;2023-06-14T19:05:43;23.40;41.60
9668;DHT22;4872;48.316;10.650;2023-06-14T19:08:10;23.40;42.20
9668;DHT22;4872;48.316;10.650;2023-06-14T19:10:37;23.10;42.30
9668;DHT22;4872;48.316;10.650;2023-06-14T19:13:04;22.80;42.70
9668;DHT22;4872;48.316;10.650;2023-06-14T19:15:32;22.70;43.00
9668;DHT22;4872;48.316;10.650;2023-06-14T19:18:02;22.70;43.60
9668;DHT22;4872;48.316;10.650;2023-06-14T19:20:30;22.40;44.00
9668;DHT22;4872;48.316;10.650;2023-06-14T19:22:59;22.10;44.10
9668;DHT22;4872;48.316;10.650;2023-06-14T19:25:28;22.30;44.80
9668;DHT22;4872;48.316;10.650;2023-06-14T19:27:55;22.20;44.70
9668;DHT22;4872;48.316;10.650;2023-06-14T19:30:21;22.10;44.80
9668;DHT22;4872;48.316;10.650;2023-06-14T19:32:48;22.20;45.30
9668;DHT22;4872;48.316;10.650;2023-06-14T19:35:16;21.90;45.40
9668;DHT22;4872;48.316;10.650;2023-06-14T19:37:44;21.90;45.50
9668;DHT22;4872;48.316;10.650;2023-06-14T19:40:13;21.70;45.30
9668;DHT22;4872;48.316;10.650;2023-06-14T19:42:40;21.70;46.00
9668;DHT22;4872;48.316;10.650;2023-06-14T19:45:08;22.00;45.80
9668;DHT22;4872;48.316;10.650;2023-06-14T19:47:35;21.60;45.70
9668;DHT22;4872;48.316;10.650;2023-06-14T19:50:01;21.60;46.00
9668;DHT22;4872;48.316;10.650;2023-06-14T19:52:32;21.80;46.10
9668;DHT22;4872;48.316;10.650;2023-06-14T19:54:59;21.40;46.30
9668;DHT22;4872;48.316;10.650;2023-06-14T19:57:27;21.30;46.40